Time;durP1;ratioP1;P1;durP2;ratioP2;P2;SDS_P1;SDS_P2;PMS_P1;PMS_P2;Temp;Humidity;BMP_temperature;BMP_pressure;BME280_temperature;BME280_humidity;BME280_pressure;Samples;Min_cycle;Max_cycle;Signal;HPM_P1;HPM_P2
2023/08/07 00:00:31;;;;;;;57.95;53.95;;;14.50;99.90;;;;;;4991597;28;20035;-80
2023/08/07 00:02:56;;;;;;;47.65;44.42;;;14.50;99.90;;;;;;4968711;28;20060;-80
2023/08/07 00:05:22;;;;;;;41.75;38.72;;;14.60;99.90;;;;;;4969112;28;20054;-80
2023/08/07 00:07:48;;;;;;;57.85;53.88;;;14.60;99.90;;;;;;4968795;28;20066;-80
2023/08/07 00:10:14;;;;;;;48.58;45.20;;;14.60;99.90;;;;;;4952699;28;20205;-80
2023/08/07 00:12:40;;;;;;;59.45;55.17;;;14.60;99.90;;;;;;4970026;28;20053;-81
2023/08/07 00:15:06;;;;;;;39.55;37.00;;;14.70;99.90;;;;;;4990228;28;20038;-80
2023/08/07 00:17:32;;;;;;;38.25;35.58;;;14.60;99.90;;;;;;5007438;28;20076;-81
2023/08/07 00:19:57;;;;;;;43.03;39.92;;;14.60;99.90;;;;;;5008696;28;20119;-81
2023/08/07 00:22:25;;;;;;;43.60;40.05;;;14.60;99.90;;;;;;5007705;28;20053;-81
2023/08/07 00:24:50;;;;;;;48.53;45.03;;;14.60;99.90;;;;;;5009123;28;20108;-80
2023/08/07 00:27:16;;;;;;;56.00;51.78;;;14.60;99.90;;;;;;5007382;28;20041;-80
2023/08/07 00:29:42;;;;;;;49.72;46.45;;;14.50;99.90;;;;;;5007035;28;20145;-81
2023/08/07 00:32:08;;;;;;;49.13;45.80;;;14.50;99.90;;;;;;4989132;28;20047;-80
2023/08/07 00:34:34;;;;;;;30.48;28.25;;;14.50;99.90;;;;;;4968625;28;20126;-80
2023/08/07 00:37:00;;;;;;;32.40;30.08;;;14.60;99.90;;;;;;4968601;28;20125;-80
2023/08/07 00:39:25;;;;;;;49.65;46.00;;;14.50;99.90;;;;;;4968366;28;20046;-80
2023/08/07 00:41:51;;;;;;;51.55;48.13;;;14.50;99.90;;;;;;4969927;28;20043;-80
2023/08/07 00:44:17;;;;;;;46.53;43.22;;;14.60;99.90;;;;;;4969379;28;20061;-81
2023/08/07 00:46:43;;;;;;;46.45;43.08;;;14.50;99.90;;;;;;4996678;28;20619;-81
2023/08/07 00:49:11;;;;;;;37.28;34.78;;;14.50;99.90;;;;;;5007304;28;20045;-80
2023/08/07 00:51:39;;;;;;;60.90;56.90;;;14.50;99.90;;;;;;5007473;28;20125;-80
2023/08/07 00:54:06;;;;;;;33.88;31.65;;;14.50;99.90;;;;;;4990869;28;20045;-80
2023/08/07 00:56:32;;;;;;;56.70;52.97;;;14.40;99.90;;;;;;5007373;28;20042;-80
2023/08/07 00:59:01;;;;;;;47.50;44.03;;;14.40;99.90;;;;;;5006778;28;20049;-81
2023/08/07 01:01:27;;;;;;;35.72;32.97;;;14.40;99.90;;;;;;4997783;28;20077;-80
2023/08/07 01:03:54;;;;;;;61.08;56.85;;;14.30;99.90;;;;;;4992691;28;20042;-81
2023/08/07 01:06:20;;;;;;;35.92;33.17;;;14.30;99.90;;;;;;4992620;28;20750;-80
2023/08/07 01:08:46;;;;;;;45.38;41.88;;;14.30;99.90;;;;;;4992420;28;20069;-80
2023/08/07 01:11:45;;;;;;;44.05;41.25;;;14.30;99.90;;;;;;4988985;28;20215;-80
2023/08/07 01:14:24;;;;;;;36.65;33.95;;;14.30;99.90;;;;;;4972820;28;20117;-80
2023/08/07 01:17:03;;;;;;;38.28;35.15;;;14.30;99.90;;;;;;4972979;28;20039;-80
2023/08/07 01:19:30;;;;;;;39.97;37.20;;;14.40;99.90;;;;;;4955400;28;20058;-80
2023/08/07 01:22:08;;;;;;;36.60;33.92;;;14.40;99.90;;;;;;4971585;28;20090;-80
2023/08/07 01:24:35;;;;;;;37.55;34.78;;;14.40;99.90;;;;;;4972888;28;20058;-81
2023/08/07 01:27:27;;;;;;;34.00;31.63;;;14.30;99.90;;;;;;5004333;28;20050;-80
2023/08/07 01:30:14;;;;;;;41.30;38.42;;;14.30;99.90;;;;;;5010475;28;20042;-81
2023/08/07 01:33:03;;;;;;;39.33;36.63;;;14.30;99.90;;;;;;5010106;28;20050;-81
2023/08/07 01:35:38;;;;;;;35.30;32.88;;;14.20;99.90;;;;;;5010332;28;20037;-81
2023/08/07 01:38:07;;;;;;;42.58;39.67;;;14.20;99.90;;;;;;5011466;28;20048;-80
2023/08/07 01:40:33;;;;;;;42.30;39.22;;;14.20;99.90;;;;;;5008724;28;20423;-80
2023/08/07 01:43:00;;;;;;;39.28;36.45;;;14.20;99.90;;;;;;5009485;28;20118;-81
2023/08/07 01:45:27;;;;;;;40.10;37.35;;;14.20;99.90;;;;;;5010126;28;20049;-81
2023/08/07 01:47:53;;;;;;;44.47;41.55;;;14.20;99.90;;;;;;5011311;28;20500;-81
2023/08/07 01:50:22;;;;;;;42.00;39.10;;;14.10;99.90;;;;;;5011060;28;20088;-80
2023/08/07 01:52:48;;;;;;;64.85;60.38;;;14.10;99.90;;;;;;5010221;28;20432;-81
2023/08/07 01:55:15;;;;;;;30.55;28.50;;;14.10;99.90;;;;;;5002836;28;20035;-80
2023/08/07 01:57:41;;;;;;;36.90;34.08;;;14.10;99.90;;;;;;4970536;28;20057;-81
2023/08/07 02:00:08;;;;;;;61.15;57.03;;;14.10;99.90;;;;;;4971114;28;20043;-81
2023/08/07 02:02:34;;;;;;;34.47;32.00;;;14.10;99.90;;;;;;4972241;28;20054;-81
2023/08/07 02:05:00;;;;;;;46.45;43.33;;;14.10;99.90;;;;;;4972286;28;20086;-81
2023/08/07 02:07:25;;;;;;;50.40;46.38;;;14.10;99.90;;;;;;4970833;28;20082;-81
2023/08/07 02:09:54;;;;;;;56.70;52.95;;;14.10;99.90;;;;;;4976101;28;20042;-80
2023/08/07 02:12:20;;;;;;;62.85;58.60;;;14.10;99.90;;;;;;5010873;28;20121;-81
2023/08/07 02:14:46;;;;;;;67.80;63.10;;;14.10;99.90;;;;;;5009448;28;20125;-81
2023/08/07 02:17:11;;;;;;;56.10;52.25;;;14.10;99.90;;;;;;5009523;28;20046;-81
2023/08/07 02:19:37;;;;;;;44.55;41.08;;;14.10;99.90;;;;;;5009309;28;20436;-80
2023/08/07 02:22:03;;;;;;;63.55;59.08;;;14.10;99.90;;;;;;5010643;28;20412;-80
2023/08/07 02:24:29;;;;;;;63.30;58.47;;;14.10;99.90;;;;;;5006708;28;20530;-81
2023/08/07 02:26:54;;;;;;;60.88;56.25;;;14.10;99.90;;;;;;4989818;28;20042;-81
2023/08/07 02:29:20;;;;;;;55.17;51.17;;;14.20;99.90;;;;;;4989735;28;20089;-81
2023/08/07 02:31:46;;;;;;;71.53;66.22;;;14.20;99.90;;;;;;4989770;28;20103;-81
2023/08/07 02:34:11;;;;;;;60.17;55.67;;;14.20;99.90;;;;;;4990885;28;20404;-80
2023/08/07 02:36:37;;;;;;;65.78;60.83;;;14.20;99.90;;;;;;4989741;28;20125;-80
2023/08/07 02:39:04;;;;;;;80.78;75.00;;;14.20;99.90;;;;;;4990533;28;20038;-81
2023/08/07 02:41:30;;;;;;;72.63;67.20;;;14.20;99.90;;;;;;5009229;28;20499;-81
2023/08/07 02:43:57;;;;;;;76.30;70.57;;;14.20;99.90;;;;;;5009322;28;20224;-81
2023/08/07 02:46:23;;;;;;;33.95;31.05;;;14.30;99.90;;;;;;5009018;28;20053;-81
2023/08/07 02:48:48;;;;;;;47.72;44.05;;;14.30;99.90;;;;;;5010168;28;20045;-81
2023/08/07 02:51:14;;;;;;;66.07;60.65;;;14.30;99.90;;;;;;5008873;28;20046;-80
2023/08/07 02:53:40;;;;;;;63.20;58.30;;;14.30;99.90;;;;;;5008369;28;20694;-81
2023/08/07 02:56:05;;;;;;;59.53;54.97;;;14.30;99.90;;;;;;4986578;28;20039;-80
2023/08/07 02:58:31;;;;;;;41.92;38.17;;;14.30;99.90;;;;;;4970969;28;20048;-80
2023/08/07 03:00:56;;;;;;;40.13;36.60;;;14.30;99.90;;;;;;4969772;28;20039;-81
2023/08/07 03:03:22;;;;;;;46.70;42.78;;;14.30;99.90;;;;;;4971162;28;20038;-81
2023/08/07 03:05:51;;;;;;;43.28;39.65;;;14.30;99.90;;;;;;4970857;28;20105;-81
2023/08/07 03:08:17;;;;;;;62.13;57.05;;;14.30;99.90;;;;;;4969047;28;20045;-81
2023/08/07 03:10:56;;;;;;;34.42;31.40;;;14.40;99.90;;;;;;5007198;28;20042;-81
2023/08/07 03:13:23;;;;;;;61.08;55.92;;;14.40;99.90;;;;;;5008888;28;20034;-80
2023/08/07 03:15:50;;;;;;;93.15;86.43;;;14.40;99.90;;;;;;5008592;28;20041;-80
2023/08/07 03:18:16;;;;;;;84.35;78.32;;;14.50;99.90;;;;;;5008551;28;20034;-80
2023/08/07 03:20:43;;;;;;;55.03;50.65;;;14.40;99.90;;;;;;5009320;28;20046;-80
2023/08/07 03:23:09;;;;;;;63.97;59.33;;;14.50;99.90;;;;;;5007378;28;20213;-80
2023/08/07 03:25:35;;;;;;;87.97;81.43;;;14.50;99.90;;;;;;4985926;28;20123;-81
2023/08/07 03:28:01;;;;;;;38.42;34.88;;;14.50;99.90;;;;;;4969273;28;20051;-80
2023/08/07 03:30:26;;;;;;;61.70;56.85;;;14.50;99.90;;;;;;4969049;28;20053;-80
2023/08/07 03:32:52;;;;;;;72.78;67.47;;;14.50;99.90;;;;;;4970422;28;20414;-80
2023/08/07 03:35:18;;;;;;;29.83;27.50;;;14.50;99.90;;;;;;4969050;28;20034;-80
2023/08/07 03:37:44;;;;;;;56.22;52.20;;;14.40;99.90;;;;;;4952451;28;20046;-80
2023/08/07 03:40:10;;;;;;;69.47;64.20;;;14.40;99.90;;;;;;5004408;28;20041;-80
2023/08/07 03:42:35;;;;;;;46.65;42.60;;;14.30;99.90;;;;;;5007945;28;20149;-80
2023/08/07 03:45:01;;;;;;;57.50;52.72;;;14.30;99.90;;;;;;5009219;28;20117;-80
2023/08/07 03:47:27;;;;;;;52.40;48.60;;;14.30;99.90;;;;;;5009260;28;20536;-80
2023/08/07 03:49:52;;;;;;;89.95;83.60;;;14.30;99.90;;;;;;5007655;28;20452;-80
2023/08/07 03:52:18;;;;;;;57.38;53.22;;;14.30;99.90;;;;;;5008921;28;20612;-80
2023/08/07 03:54:44;;;;;;;64.03;59.13;;;14.30;99.90;;;;;;4992955;28;20046;-80
2023/08/07 03:57:10;;;;;;;101.47;94.45;;;14.30;99.90;;;;;;4988198;28;20404;-80
2023/08/07 03:59:36;;;;;;;90.70;84.05;;;14.30;99.90;;;;;;4993630;28;20092;-80
2023/08/07 04:02:02;;;;;;;88.60;82.50;;;14.20;99.90;;;;;;4972179;28;20046;-80
2023/08/07 04:04:28;;;;;;;69.60;64.28;;;14.20;99.90;;;;;;4988066;28;20575;-80
2023/08/07 04:06:54;;;;;;;96.68;89.40;;;14.30;99.90;;;;;;4990956;28;20428;-80
2023/08/07 04:09:19;;;;;;;95.00;88.45;;;14.30;99.90;;;;;;4992729;28;20034;-80
2023/08/07 04:11:45;;;;;;;104.38;97.53;;;14.30;99.90;;;;;;4992371;28;20070;-80
2023/08/07 04:14:11;;;;;;;100.45;93.68;;;14.40;99.90;;;;;;4987976;28;20073;-81
2023/08/07 04:16:37;;;;;;;104.43;96.75;;;14.40;99.90;;;;;;4989364;28;20042;-80
2023/08/07 04:19:03;;;;;;;93.78;87.05;;;14.40;99.90;;;;;;4987906;28;20117;-80
2023/08/07 04:21:30;;;;;;;101.45;94.40;;;14.40;99.90;;;;;;4988837;28;20125;-79
2023/08/07 04:23:56;;;;;;;91.97;85.55;;;14.50;99.90;;;;;;4992715;28;20057;-80
2023/08/07 04:26:21;;;;;;;90.60;84.50;;;14.40;99.90;;;;;;5007831;28;20407;-80
2023/08/07 04:28:47;;;;;;;79.47;74.00;;;14.50;99.90;;;;;;5007289;28;20046;-79
2023/08/07 04:31:13;;;;;;;84.75;79.15;;;14.50;99.90;;;;;;5008881;28;20057;-79
2023/08/07 04:33:39;;;;;;;83.82;78.25;;;14.50;99.90;;;;;;5008534;28;20070;-80
2023/08/07 04:36:05;;;;;;;93.40;87.05;;;14.60;99.90;;;;;;4992860;28;20536;-80
2023/08/07 04:38:30;;;;;;;103.20;96.53;;;14.60;99.90;;;;;;5009272;28;20038;-80
2023/08/07 04:40:56;;;;;;;53.20;49.25;;;14.60;99.90;;;;;;4992914;28;20042;-80
2023/08/07 04:43:25;;;;;;;87.55;81.35;;;14.60;99.90;;;;;;4993093;28;20041;-79
2023/08/07 04:45:50;;;;;;;63.90;59.15;;;14.60;99.90;;;;;;4991555;28;20057;-80
2023/08/07 04:48:17;;;;;;;75.93;70.53;;;14.60;99.90;;;;;;4992639;28;20404;-80
2023/08/07 04:50:43;;;;;;;90.68;84.03;;;14.60;99.90;;;;;;4992713;28;20046;-80
2023/08/07 04:53:09;;;;;;;86.35;80.30;;;14.50;99.90;;;;;;4993907;28;20042;-79
2023/08/07 04:55:35;;;;;;;79.00;73.43;;;14.60;99.90;;;;;;5012648;28;20038;-80
2023/08/07 04:58:00;;;;;;;74.93;69.75;;;14.60;99.90;;;;;;5011280;28;20049;-79
2023/08/07 05:00:28;;;;;;;93.28;86.35;;;14.60;99.90;;;;;;5012228;28;20061;-79
2023/08/07 05:02:53;;;;;;;79.38;73.60;;;14.60;99.90;;;;;;5011129;28;20121;-79
2023/08/07 05:05:21;;;;;;;99.35;92.38;;;14.70;99.90;;;;;;5011797;28;20649;-80
2023/08/07 05:07:47;;;;;;;94.28;87.60;;;14.80;99.90;;;;;;5009092;28;20082;-79
2023/08/07 05:10:13;;;;;;;74.25;68.88;;;14.90;99.90;;;;;;4991105;28;20039;-80
2023/08/07 05:12:39;;;;;;;58.00;53.80;;;14.90;99.90;;;;;;4992533;28;20037;-79
2023/08/07 05:15:05;;;;;;;97.10;89.88;;;14.90;99.90;;;;;;4992480;28;20042;-80
2023/08/07 05:17:32;;;;;;;68.25;63.03;;;14.90;99.90;;;;;;4990957;28;20047;-80
2023/08/07 05:19:57;;;;;;;51.45;46.75;;;14.90;99.90;;;;;;4990268;28;20517;-79
2023/08/07 05:22:23;;;;;;;89.32;82.68;;;15.00;99.90;;;;;;4991225;28;20248;-79
2023/08/07 05:24:49;;;;;;;52.95;48.83;;;15.10;99.90;;;;;;5011234;28;20041;-80
2023/08/07 05:27:15;;;;;;;65.63;60.63;;;15.20;99.90;;;;;;5010532;28;20045;-79
2023/08/07 05:29:43;;;;;;;64.80;60.03;;;15.30;99.90;;;;;;4994157;28;20050;-80
2023/08/07 05:32:13;;;;;;;48.28;44.25;;;15.40;99.90;;;;;;5010569;28;20057;-79
2023/08/07 05:34:39;;;;;;;43.63;39.90;;;15.40;99.90;;;;;;5009978;28;20041;-79
2023/08/07 05:37:06;;;;;;;38.92;35.35;;;15.40;99.90;;;;;;5010270;28;20077;-79
2023/08/07 05:39:32;;;;;;;35.63;32.47;;;15.40;99.90;;;;;;5006038;28;20038;-79
2023/08/07 05:41:57;;;;;;;37.97;34.20;;;15.40;99.90;;;;;;4990754;28;20705;-79
2023/08/07 05:44:24;;;;;;;39.30;35.22;;;15.50;99.90;;;;;;4991886;28;20515;-80
2023/08/07 05:46:50;;;;;;;41.72;38.38;;;15.40;99.90;;;;;;4991609;28;20038;-79
2023/08/07 05:49:16;;;;;;;46.83;42.92;;;15.50;99.90;;;;;;4993456;28;20046;-80
2023/08/07 05:51:41;;;;;;;43.55;39.92;;;15.40;99.90;;;;;;4991776;28;20113;-80
2023/08/07 05:54:07;;;;;;;50.85;46.15;;;15.50;99.90;;;;;;4993949;28;20034;-80
2023/08/07 05:56:33;;;;;;;47.20;43.08;;;15.70;99.90;;;;;;5011236;28;20212;-80
2023/08/07 05:58:59;;;;;;;48.90;44.45;;;15.80;99.90;;;;;;5011015;28;20134;-79
2023/08/07 06:01:30;;;;;;;73.45;68.03;;;15.90;99.90;;;;;;5011081;28;20038;-80
2023/08/07 06:03:58;;;;;;;28.85;25.83;;;16.70;99.90;;;;;;4971908;28;20090;-79
2023/08/07 06:06:27;;;;;;;75.10;69.82;;;18.30;99.90;;;;;;4979922;28;20052;-80
2023/08/07 06:08:53;;;;;;;19.50;12.70;;;19.40;99.90;;;;;;4990157;28;20061;-80
2023/08/07 06:11:19;;;;;;;19.40;17.17;;;19.40;99.90;;;;;;4990059;28;20070;-80
2023/08/07 06:13:45;;;;;;;19.00;14.93;;;19.00;99.90;;;;;;4990232;28;20076;-80
2023/08/07 06:16:10;;;;;;;24.73;15.68;;;18.80;99.90;;;;;;4991480;28;20404;-80
2023/08/07 06:18:37;;;;;;;21.13;13.15;;;18.60;99.90;;;;;;4994825;28;20068;-80
2023/08/07 06:21:06;;;;;;;20.63;17.48;;;18.20;99.90;;;;;;5009731;28;20049;-80
2023/08/07 06:23:35;;;;;;;33.58;30.77;;;17.90;99.90;;;;;;4990976;28;20129;-80
2023/08/07 06:26:04;;;;;;;23.20;21.10;;;17.60;99.90;;;;;;4991311;28;20045;-80
2023/08/07 06:28:30;;;;;;;48.78;45.45;;;17.30;99.90;;;;;;4991058;28;20121;-80
2023/08/07 06:31:10;;;;;;;43.10;39.72;;;17.10;99.90;;;;;;4990626;28;20046;-79
2023/08/07 06:33:36;;;;;;;41.45;37.38;;;16.90;99.90;;;;;;4996611;28;20033;-79
2023/08/07 06:36:03;;;;;;;62.25;58.10;;;16.80;99.90;;;;;;5010418;28;20409;-80
2023/08/07 06:38:30;;;;;;;48.47;44.92;;;16.70;99.90;;;;;;5010543;28;20042;-79
2023/08/07 06:40:55;;;;;;;55.33;51.17;;;16.50;99.90;;;;;;5009081;28;20078;-79
2023/08/07 06:43:21;;;;;;;54.58;50.47;;;16.40;99.90;;;;;;5009240;28;20084;-79
2023/08/07 06:45:50;;;;;;;85.88;79.45;;;16.40;99.90;;;;;;5010011;28;20049;-80
2023/08/07 06:48:17;;;;;;;57.85;53.67;;;16.50;99.90;;;;;;5000482;28;20034;-79
2023/08/07 06:50:43;;;;;;;52.08;48.05;;;16.50;99.90;;;;;;4970177;28;20444;-79
2023/08/07 06:53:09;;;;;;;46.53;43.08;;;16.80;99.90;;;;;;4971220;28;20038;-79
2023/08/07 06:55:34;;;;;;;42.67;38.78;;;17.20;99.90;;;;;;4971007;28;20473;-78
2023/08/07 06:58:00;;;;;;;43.13;39.80;;;17.40;99.90;;;;;;4969343;28;20039;-78
2023/08/07 07:00:26;;;;;;;49.55;45.83;;;17.30;99.90;;;;;;4953184;28;20043;-78
2023/08/07 07:02:51;;;;;;;43.55;39.90;;;17.00;99.90;;;;;;4961304;28;20041;-78
2023/08/07 07:05:18;;;;;;;54.95;51.10;;;16.80;99.90;;;;;;5008692;28;20037;-78
2023/08/07 07:07:44;;;;;;;67.38;62.65;;;16.60;99.90;;;;;;5008472;28;20050;-79
2023/08/07 07:10:10;;;;;;;53.97;50.17;;;16.50;99.90;;;;;;5008689;28;20100;-79
2023/08/07 07:12:36;;;;;;;40.20;37.08;;;16.70;99.90;;;;;;5008786;28;20041;-78
2023/08/07 07:15:02;;;;;;;31.38;28.88;;;16.90;99.90;;;;;;5009345;28;20129;-78
2023/08/07 07:17:28;;;;;;;31.45;28.80;;;17.00;99.90;;;;;;5006406;28;20066;-78
2023/08/07 07:19:53;;;;;;;54.33;50.20;;;17.00;99.90;;;;;;4988700;28;20525;-78
2023/08/07 07:22:19;;;;;;;65.85;61.17;;;16.80;99.90;;;;;;4988694;28;20483;-79
2023/08/07 07:24:45;;;;;;;62.47;58.47;;;16.50;99.90;;;;;;4987228;28;20057;-78
2023/08/07 07:27:10;;;;;;;70.78;66.40;;;16.10;99.90;;;;;;4987514;28;20271;-78
2023/08/07 07:29:36;;;;;;;80.20;74.72;;;15.90;99.90;;;;;;4988399;28;20053;-78
2023/08/07 07:32:02;;;;;;;88.90;83.10;;;15.70;99.90;;;;;;4989667;28;20046;-78
2023/08/07 07:34:27;;;;;;;79.63;73.88;;;15.80;99.90;;;;;;5008128;28;20076;-78
2023/08/07 07:36:54;;;;;;;78.75;73.65;;;16.00;99.90;;;;;;5009256;28;20095;-79
2023/08/07 07:39:20;;;;;;;89.15;83.43;;;16.10;99.90;;;;;;5007789;28;20076;-78
2023/08/07 07:41:45;;;;;;;103.43;96.78;;;16.10;99.90;;;;;;5009648;28;20164;-78
2023/08/07 07:44:11;;;;;;;75.35;70.53;;;16.10;99.90;;;;;;5007369;28;20128;-78
2023/08/07 07:46:37;;;;;;;86.45;80.68;;;16.00;99.90;;;;;;5007496;28;20036;-77
2023/08/07 07:49:04;;;;;;;74.22;69.63;;;16.00;99.90;;;;;;4989587;28;20038;-78
2023/08/07 07:51:31;;;;;;;63.00;58.45;;;16.00;99.90;;;;;;4989129;28;20046;-79
2023/08/07 07:53:58;;;;;;;70.03;65.47;;;16.10;99.90;;;;;;4989546;28;20030;-78
2023/08/07 07:56:23;;;;;;;69.72;64.97;;;16.20;99.90;;;;;;4988056;28;20051;-78
2023/08/07 07:58:49;;;;;;;71.30;66.43;;;16.40;99.90;;;;;;4987391;28;20053;-78
2023/08/07 08:01:15;;;;;;;67.10;61.65;;;16.50;99.90;;;;;;4988186;28;20038;-78
2023/08/07 08:03:40;;;;;;;64.40;60.05;;;16.70;99.90;;;;;;5007584;28;20527;-79
2023/08/07 08:06:06;;;;;;;76.32;70.72;;;17.10;99.90;;;;;;5007541;28;20125;-78
2023/08/07 08:08:32;;;;;;;82.43;77.05;;;17.30;99.90;;;;;;5007695;28;20083;-79
2023/08/07 08:10:57;;;;;;;27.20;24.58;;;17.30;99.90;;;;;;5008917;28;20419;-79
2023/08/07 08:13:25;;;;;;;41.15;37.65;;;17.30;99.90;;;;;;5008563;28;20495;-78
2023/08/07 08:15:51;;;;;;;30.02;27.08;;;17.20;99.90;;;;;;5008858;28;20121;-78
2023/08/07 08:18:16;;;;;;;37.35;34.45;;;16.80;99.90;;;;;;4986936;28;20126;-79
2023/08/07 08:20:42;;;;;;;55.22;51.42;;;16.40;99.90;;;;;;4969686;28;20466;-78
2023/08/07 08:23:08;;;;;;;55.65;51.78;;;16.20;99.90;;;;;;4969845;28;20134;-78
2023/08/07 08:25:34;;;;;;;79.07;73.97;;;16.20;99.90;;;;;;4968525;28;20109;-79
2023/08/07 08:28:00;;;;;;;110.10;102.30;;;16.20;99.90;;;;;;4969385;28;20070;-78
2023/08/07 08:30:26;;;;;;;87.80;82.07;;;16.10;99.90;;;;;;4968287;28;20170;-78
2023/08/07 08:32:51;;;;;;;81.03;74.68;;;16.10;99.90;;;;;;4984444;28;20554;-78
2023/08/07 08:35:17;;;;;;;60.45;56.30;;;16.10;99.90;;;;;;5008659;28;20400;-78
2023/08/07 08:37:43;;;;;;;92.63;86.82;;;16.10;99.90;;;;;;5008857;28;20451;-78
2023/08/07 08:40:16;;;;;;;61.63;57.50;;;16.20;99.90;;;;;;5007413;28;20045;-78
2023/08/07 08:42:44;;;;;;;91.95;86.30;;;16.40;99.90;;;;;;5007039;28;20171;-78
2023/08/07 08:45:12;;;;;;;55.70;52.08;;;16.60;99.90;;;;;;5007315;28;20042;-78
2023/08/07 08:47:40;;;;;;;34.03;31.15;;;16.90;99.90;;;;;;4987543;28;20094;-79
2023/08/07 08:50:14;;;;;;;60.95;56.50;;;17.10;99.90;;;;;;4969432;28;20074;-78
2023/08/07 08:52:44;;;;;;;22.73;20.65;;;17.50;99.90;;;;;;4969796;28;20047;-78
2023/08/07 08:55:11;;;;;;;22.90;20.70;;;17.60;99.90;;;;;;4969766;28;20058;-78
2023/08/07 08:57:38;;;;;;;16.65;8.73;;;18.00;99.90;;;;;;4967884;28;20067;-78
2023/08/07 09:00:15;;;;;;;17.42;9.18;;;18.00;99.90;;;;;;4969548;28;20108;-79
2023/08/07 09:02:45;;;;;;;18.25;10.43;;;18.20;99.90;;;;;;5007055;28;20049;-78
2023/08/07 09:05:11;;;;;;;17.42;9.30;;;18.40;99.90;;;;;;5007175;28;20266;-79
2023/08/07 09:07:38;;;;;;;13.10;11.27;;;18.60;99.90;;;;;;5008524;28;20181;-80
2023/08/07 09:10:04;;;;;;;14.20;8.25;;;18.80;99.90;;;;;;5007312;28;20112;-80
2023/08/07 09:12:33;;;;;;;16.42;11.70;;;19.10;99.90;;;;;;5008016;28;20045;-79
2023/08/07 09:15:01;;;;;;;12.80;10.82;;;19.20;99.90;;;;;;5007240;28;20046;-79
2023/08/07 09:17:29;;;;;;;21.58;13.95;;;19.40;99.90;;;;;;4989477;28;20037;-79
2023/08/07 09:19:55;;;;;;;14.60;11.57;;;19.60;99.90;;;;;;4988311;28;20046;-79
2023/08/07 09:22:21;;;;;;;18.23;14.20;;;19.70;99.90;;;;;;4990736;28;20065;-79
2023/08/07 09:24:47;;;;;;;65.80;61.80;;;20.30;99.90;;;;;;4992161;28;20057;-80
2023/08/07 09:27:13;;;;;;;34.85;32.33;;;20.60;99.90;;;;;;4990390;28;20378;-80
2023/08/07 09:29:46;;;;;;;97.43;91.55;;;21.10;99.90;;;;;;4990889;28;20070;-79
2023/08/07 09:32:13;;;;;;;875.50;803.85;;;20.90;99.90;;;;;;5009313;28;20117;-80
2023/08/07 09:34:42;;;;;;;809.45;735.55;;;20.70;99.90;;;;;;5012102;28;20473;-79
2023/08/07 09:37:09;;;;;;;1999.90;999.90;;;21.30;99.90;;;;;;5011672;28;20044;-79
2023/08/07 09:39:37;;;;;;;1999.90;999.90;;;21.10;99.90;;;;;;5009777;28;20507;-80
2023/08/07 09:42:04;;;;;;;1999.90;999.90;;;21.30;99.90;;;;;;5010496;28;20077;-80
2023/08/07 09:44:36;;;;;;;1999.90;999.90;;;21.20;99.90;;;;;;5000149;28;20070;-79
2023/08/07 09:47:20;;;;;;;1999.90;999.90;;;21.20;99.90;;;;;;4971035;28;20042;-79
2023/08/07 09:49:46;;;;;;;1999.90;999.90;;;21.10;99.90;;;;;;4972471;28;20394;-79
2023/08/07 09:52:14;;;;;;;1999.90;999.90;;;20.30;99.90;;;;;;4970916;28;20050;-79
2023/08/07 09:54:40;;;;;;;1999.90;999.90;;;19.80;99.90;;;;;;4971696;28;20034;-79
2023/08/07 09:57:06;;;;;;;1803.32;999.90;;;19.60;99.90;;;;;;4972299;28;20089;-79
2023/08/07 09:59:33;;;;;;;1999.90;999.90;;;19.70;99.90;;;;;;4990107;28;20077;-80
2023/08/07 10:02:03;;;;;;;1999.90;999.90;;;19.70;99.90;;;;;;4993528;28;20050;-79
2023/08/07 10:04:30;;;;;;;1999.90;999.90;;;19.70;99.90;;;;;;5009707;28;20046;-80
2023/08/07 10:06:56;;;;;;;1999.90;999.90;;;19.80;99.90;;;;;;5009738;28;20073;-80
2023/08/07 10:09:22;;;;;;;1999.90;999.90;;;19.90;99.90;;;;;;5010381;28;20612;-81
2023/08/07 10:11:49;;;;;;;1999.90;997.55;;;19.70;99.90;;;;;;5009724;28;20038;-80
2023/08/07 10:14:15;;;;;;;1999.90;999.90;;;19.50;99.90;;;;;;5002311;28;20065;-80
2023/08/07 10:16:41;;;;;;;1999.90;999.90;;;19.40;99.90;;;;;;4989888;28;20046;-79
2023/08/07 10:19:08;;;;;;;1999.90;999.90;;;19.30;99.90;;;;;;4991221;28;20117;-80
2023/08/07 10:21:39;;;;;;;1981.15;999.90;;;19.30;99.90;;;;;;4989980;28;20078;-83
2023/08/07 10:24:06;;;;;;;1706.00;999.90;;;19.10;99.90;;;;;;4994339;28;20034;-78
2023/08/07 10:26:34;;;;;;;1999.90;999.90;;;19.10;99.90;;;;;;4990979;28;20118;-80
2023/08/07 10:29:03;;;;;;;1867.70;999.90;;;19.00;99.90;;;;;;4997610;28;20042;-80
2023/08/07 10:31:30;;;;;;;1999.90;999.90;;;19.00;99.90;;;;;;5008887;28;20046;-79
2023/08/07 10:33:57;;;;;;;947.08;854.53;;;19.00;99.90;;;;;;5008727;28;20046;-79
2023/08/07 10:36:22;;;;;;;1694.03;999.90;;;19.20;99.90;;;;;;5008741;28;20042;-80
2023/08/07 10:39:09;;;;;;;1641.07;999.90;;;19.30;99.90;;;;;;5009980;28;20049;-80
2023/08/07 10:41:40;;;;;;;1999.90;999.90;;;19.10;99.90;;;;;;5008520;28;20130;-80
2023/08/07 10:44:22;;;;;;;1999.90;999.90;;;18.90;99.90;;;;;;4993877;28;20069;-81
2023/08/07 10:46:51;;;;;;;1560.43;994.50;;;18.70;99.90;;;;;;4970525;28;20039;-80
2023/08/07 10:49:37;;;;;;;1495.05;999.90;;;18.50;99.90;;;;;;4970579;28;20394;-80
2023/08/07 10:52:16;;;;;;;1706.25;999.90;;;18.60;99.90;;;;;;4953027;28;20047;-80
2023/08/07 10:54:48;;;;;;;1999.90;999.90;;;18.70;99.90;;;;;;4970571;28;20035;-79
2023/08/07 10:57:15;;;;;;;1999.90;999.90;;;19.10;99.90;;;;;;4970672;28;20066;-80
2023/08/07 10:59:56;;;;;;;1999.90;999.90;;;19.50;99.90;;;;;;5005485;28;20120;-81
2023/08/07 11:02:26;;;;;;;1999.90;999.90;;;19.70;99.90;;;;;;5009384;28;20088;-81
2023/08/07 11:04:55;;;;;;;1999.90;999.90;;;19.40;99.90;;;;;;5008149;28;20080;-80
2023/08/07 11:07:29;;;;;;;1999.90;999.90;;;19.40;99.90;;;;;;5007541;28;20034;-81
2023/08/07 11:09:56;;;;;;;1999.90;999.90;;;19.30;99.90;;;;;;5003739;28;20034;-80
2023/08/07 11:12:25;;;;;;;1440.70;292.58;;;19.40;99.90;;;;;;5001381;28;20457;-81
2023/08/07 11:14:52;;;;;;;1999.90;999.90;;;19.30;99.90;;;;;;4992406;28;20047;-81
2023/08/07 11:17:19;;;;;;;1999.90;899.38;;;19.40;99.90;;;;;;4972196;28;20066;-80
2023/08/07 11:19:47;;;;;;;1999.90;999.90;;;19.40;99.90;;;;;;4987738;28;20129;-78
2023/08/07 11:22:16;;;;;;;1999.90;788.60;;;19.20;99.90;;;;;;4988664;28;20405;-80
2023/08/07 11:24:41;;;;;;;1999.90;675.83;;;19.10;99.90;;;;;;4987875;28;20121;-80
2023/08/07 11:27:08;;;;;;;1999.90;691.20;;;19.20;99.90;;;;;;4989809;28;20181;-81
2023/08/07 11:29:34;;;;;;;1999.90;963.00;;;19.40;99.90;;;;;;5007657;28;20559;-81
2023/08/07 11:31:59;;;;;;;1999.90;964.38;;;19.70;99.90;;;;;;5009418;28;20376;-83
2023/08/07 11:34:25;;;;;;;1999.90;929.17;;;19.70;99.90;;;;;;5007612;28;20038;-81
2023/08/07 11:36:51;;;;;;;1999.90;974.03;;;19.40;99.90;;;;;;5008551;28;20038;-81
2023/08/07 11:39:19;;;;;;;1999.90;947.70;;;19.20;99.90;;;;;;5007582;28;20053;-81
2023/08/07 11:41:45;;;;;;;1999.90;999.90;;;19.00;99.90;;;;;;5008586;28;20073;-82
2023/08/07 11:44:11;;;;;;;1999.90;989.88;;;19.10;99.90;;;;;;4987663;28;20097;-82
2023/08/07 11:46:36;;;;;;;1999.90;999.90;;;19.20;99.90;;;;;;4988147;28;20429;-81
2023/08/07 11:49:04;;;;;;;1999.90;999.90;;;18.90;99.90;;;;;;4989190;28;20042;-81
2023/08/07 11:51:30;;;;;;;1999.90;999.90;;;18.90;99.90;;;;;;4987367;28;20155;-81
2023/08/07 11:53:59;;;;;;;1999.90;999.90;;;19.00;99.90;;;;;;4971675;28;20054;-82
2023/08/07 11:56:25;;;;;;;1999.90;999.90;;;19.00;99.90;;;;;;4989322;28;20043;-81
2023/08/07 11:58:53;;;;;;;1999.90;999.90;;;19.10;99.90;;;;;;5007002;28;20045;-81
2023/08/07 12:01:24;;;;;;;1699.38;941.20;;;18.90;99.90;;;;;;5008686;28;20030;-82
2023/08/07 12:04:10;;;;;;;481.30;434.88;;;18.70;99.90;;;;;;5008752;28;20718;-81
2023/08/07 12:06:39;;;;;;;210.63;190.60;;;18.30;99.90;;;;;;5006960;28;20074;-81
2023/08/07 12:09:12;;;;;;;50.80;47.33;;;18.10;99.90;;;;;;5007271;28;20058;-81
2023/08/07 12:11:38;;;;;;;100.93;93.60;;;18.00;99.90;;;;;;5004904;28;20050;-81
2023/08/07 12:14:03;;;;;;;18.15;16.40;;;17.70;99.90;;;;;;4971813;28;20424;-81
2023/08/07 12:16:34;;;;;;;28.98;26.77;;;17.60;99.90;;;;;;4971224;28;20046;-81
2023/08/07 12:19:00;;;;;;;30.42;28.30;;;17.60;99.90;;;;;;4986921;28;20133;-81
2023/08/07 12:21:26;;;;;;;33.33;30.88;;;17.70;99.90;;;;;;4988923;28;20121;-81